sensor_id;sensor_type;location;lat;lon;timestamp;pressure;altitude;pressure_sealevel;temperature;humidity
62617;BME280;62539;51.190;6.808;2023-07-30T00:01:26;100719.47;;;22.02;67.86
62617;BME280;62539;51.190;6.808;2023-07-30T00:03:52;100716.94;;;22.00;68.28
62617;BME280;62539;51.190;6.808;2023-07-30T00:06:17;100714.44;;;21.97;68.42
62617;BME280;62539;51.190;6.808;2023-07-30T00:08:42;100707.44;;;21.96;68.13
62617;BME280;62539;51.190;6.808;2023-07-30T00:11:08;100713.72;;;21.94;68.42
62617;BME280;62539;51.190;6.808;2023-07-30T00:13:33;100709.47;;;21.91;68.55
62617;BME280;62539;51.190;6.808;2023-07-30T00:15:59;100705.13;;;21.90;68.51
62617;BME280;62539;51.190;6.808;2023-07-30T00:18:24;100705.28;;;21.87;68.79
62617;BME280;62539;51.190;6.808;2023-07-30T00:20:49;100714.13;;;21.86;68.30
62617;BME280;62539;51.190;6.808;2023-07-30T00:23:15;100708.06;;;21.84;68.40
62617;BME280;62539;51.190;6.808;2023-07-30T00:25:40;100709.91;;;21.82;68.91
62617;BME280;62539;51.190;6.808;2023-07-30T00:28:06;100718.00;;;21.79;68.49
62617;BME280;62539;51.190;6.808;2023-07-30T00:30:31;100722.41;;;21.78;68.63
62617;BME280;62539;51.190;6.808;2023-07-30T00:32:56;100726.06;;;21.76;68.60
62617;BME280;62539;51.190;6.808;2023-07-30T00:35:22;100721.72;;;21.75;69.00
62617;BME280;62539;51.190;6.808;2023-07-30T00:37:47;100719.13;;;21.73;68.89
62617;BME280;62539;51.190;6.808;2023-07-30T00:40:13;100722.72;;;21.72;69.03
62617;BME280;62539;51.190;6.808;2023-07-30T00:42:39;100723.63;;;21.71;68.75
62617;BME280;62539;51.190;6.808;2023-07-30T00:45:05;100717.56;;;21.69;68.99
62617;BME280;62539;51.190;6.808;2023-07-30T00:47:31;100719.44;;;21.67;69.26
62617;BME280;62539;51.190;6.808;2023-07-30T00:49:57;100723.88;;;21.66;69.31
62617;BME280;62539;51.190;6.808;2023-07-30T00:52:23;100722.16;;;21.65;69.19
62617;BME280;62539;51.190;6.808;2023-07-30T00:54:52;100728.44;;;21.63;69.29
62617;BME280;62539;51.190;6.808;2023-07-30T00:57:19;100724.91;;;21.62;69.44
62617;BME280;62539;51.190;6.808;2023-07-30T00:59:46;100730.25;;;21.61;69.23
62617;BME280;62539;51.190;6.808;2023-07-30T01:02:13;100728.53;;;21.59;69.08
62617;BME280;62539;51.190;6.808;2023-07-30T01:04:40;100724.28;;;21.57;69.45
62617;BME280;62539;51.190;6.808;2023-07-30T01:07:06;100730.41;;;21.57;69.48
62617;BME280;62539;51.190;6.808;2023-07-30T01:09:32;100733.97;;;21.56;69.12
62617;BME280;62539;51.190;6.808;2023-07-30T01:12:00;100731.41;;;21.55;69.65
62617;BME280;62539;51.190;6.808;2023-07-30T01:14:27;100720.88;;;21.55;69.57
62617;BME280;62539;51.190;6.808;2023-07-30T01:16:53;100735.84;;;21.54;69.70
62617;BME280;62539;51.190;6.808;2023-07-30T01:19:19;100740.28;;;21.54;69.67
62617;BME280;62539;51.190;6.808;2023-07-30T01:21:44;100740.28;;;21.54;69.26
62617;BME280;62539;51.190;6.808;2023-07-30T01:24:10;100738.56;;;21.53;69.67
62617;BME280;62539;51.190;6.808;2023-07-30T01:26:48;100748.25;;;21.52;69.49
62617;BME280;62539;51.190;6.808;2023-07-30T01:29:53;100740.41;;;21.51;69.64
62617;BME280;62539;51.190;6.808;2023-07-30T01:32:26;100749.13;;;21.53;69.39
62617;BME280;62539;51.190;6.808;2023-07-30T01:34:56;100756.16;;;21.52;69.50
62617;BME280;62539;51.190;6.808;2023-07-30T01:37:23;100759.69;;;21.53;69.80
62617;BME280;62539;51.190;6.808;2023-07-30T01:39:50;100759.69;;;21.53;69.71
62617;BME280;62539;51.190;6.808;2023-07-30T01:42:17;100755.31;;;21.52;69.38
62617;BME280;62539;51.190;6.808;2023-07-30T01:44:42;100757.03;;;21.53;69.55
62617;BME280;62539;51.190;6.808;2023-07-30T01:47:08;100762.31;;;21.53;69.47
62617;BME280;62539;51.190;6.808;2023-07-30T01:49:33;100764.94;;;21.53;69.30
62617;BME280;62539;51.190;6.808;2023-07-30T01:51:59;100761.38;;;21.54;69.45
62617;BME280;62539;51.190;6.808;2023-07-30T01:54:24;100759.69;;;21.53;69.44
62617;BME280;62539;51.190;6.808;2023-07-30T01:56:50;100753.47;;;21.54;69.34
62617;BME280;62539;51.190;6.808;2023-07-30T01:59:16;100746.38;;;21.54;69.20
62617;BME280;62539;51.190;6.808;2023-07-30T02:01:42;100748.19;;;21.54;69.59
62617;BME280;62539;51.190;6.808;2023-07-30T02:04:08;100761.38;;;21.54;69.33
62617;BME280;62539;51.190;6.808;2023-07-30T02:06:34;100762.22;;;21.54;69.52
62617;BME280;62539;51.190;6.808;2023-07-30T02:08:59;100755.22;;;21.53;69.55
62617;BME280;62539;51.190;6.808;2023-07-30T02:11:25;100762.22;;;21.54;69.25
62617;BME280;62539;51.190;6.808;2023-07-30T02:13:51;100757.88;;;21.53;69.39
62617;BME280;62539;51.190;6.808;2023-07-30T02:16:16;100743.84;;;21.53;69.53
62617;BME280;62539;51.190;6.808;2023-07-30T02:18:42;100751.75;;;21.53;69.20
62617;BME280;62539;51.190;6.808;2023-07-30T02:21:07;100754.41;;;21.53;69.54
62617;BME280;62539;51.190;6.808;2023-07-30T02:23:33;100761.44;;;21.52;69.33
62617;BME280;62539;51.190;6.808;2023-07-30T02:25:58;100764.09;;;21.52;69.26
62617;BME280;62539;51.190;6.808;2023-07-30T02:28:24;100749.16;;;21.51;69.20
62617;BME280;62539;51.190;6.808;2023-07-30T02:30:49;100751.91;;;21.50;69.63
62617;BME280;62539;51.190;6.808;2023-07-30T02:33:14;100757.19;;;21.50;69.50
62617;BME280;62539;51.190;6.808;2023-07-30T02:35:40;100759.97;;;21.47;69.32
62617;BME280;62539;51.190;6.808;2023-07-30T02:38:07;100758.25;;;21.46;69.71
62617;BME280;62539;51.190;6.808;2023-07-30T02:40:33;100753.91;;;21.44;69.46
62617;BME280;62539;51.190;6.808;2023-07-30T02:42:58;100765.38;;;21.43;69.71
62617;BME280;62539;51.190;6.808;2023-07-30T02:45:23;100761.97;;;21.41;69.73
62617;BME280;62539;51.190;6.808;2023-07-30T02:47:49;100761.09;;;21.41;69.57
62617;BME280;62539;51.190;6.808;2023-07-30T02:50:14;100768.16;;;21.40;69.73
62617;BME280;62539;51.190;6.808;2023-07-30T02:52:40;100766.47;;;21.39;69.56
62617;BME280;62539;51.190;6.808;2023-07-30T02:55:05;100764.75;;;21.38;69.50
62617;BME280;62539;51.190;6.808;2023-07-30T02:57:31;100770.94;;;21.37;69.92
62617;BME280;62539;51.190;6.808;2023-07-30T02:59:56;100769.28;;;21.35;69.75
62617;BME280;62539;51.190;6.808;2023-07-30T03:02:22;100775.50;;;21.34;69.62
62617;BME280;62539;51.190;6.808;2023-07-30T03:04:48;100779.94;;;21.33;69.61
62617;BME280;62539;51.190;6.808;2023-07-30T03:07:13;100782.63;;;21.32;70.05
62617;BME280;62539;51.190;6.808;2023-07-30T03:09:38;100780.91;;;21.30;69.82
62617;BME280;62539;51.190;6.808;2023-07-30T03:12:04;100778.38;;;21.29;69.96
62617;BME280;62539;51.190;6.808;2023-07-30T03:14:30;100780.22;;;21.27;69.78
62617;BME280;62539;51.190;6.808;2023-07-30T03:16:55;100778.50;;;21.26;69.91
62617;BME280;62539;51.190;6.808;2023-07-30T03:19:20;100783.78;;;21.26;69.76
62617;BME280;62539;51.190;6.808;2023-07-30T03:21:46;100781.28;;;21.23;70.26
62617;BME280;62539;51.190;6.808;2023-07-30T03:24:11;100780.50;;;21.21;70.03
62617;BME280;62539;51.190;6.808;2023-07-30T03:26:37;100785.78;;;21.21;69.99
62617;BME280;62539;51.190;6.808;2023-07-30T03:29:02;100785.00;;;21.19;69.99
62617;BME280;62539;51.190;6.808;2023-07-30T03:31:28;100787.72;;;21.17;70.13
62617;BME280;62539;51.190;6.808;2023-07-30T03:33:53;100787.75;;;21.15;70.09
62617;BME280;62539;51.190;6.808;2023-07-30T03:36:19;100788.63;;;21.16;70.22
62617;BME280;62539;51.190;6.808;2023-07-30T03:38:45;100792.19;;;21.15;70.16
62617;BME280;62539;51.190;6.808;2023-07-30T03:41:10;100798.47;;;21.12;70.34
62617;BME280;62539;51.190;6.808;2023-07-30T03:43:36;100791.47;;;21.11;70.38
62617;BME280;62539;51.190;6.808;2023-07-30T03:46:01;100802.91;;;21.12;70.22
62617;BME280;62539;51.190;6.808;2023-07-30T03:48:27;100807.28;;;21.11;70.53
62617;BME280;62539;51.190;6.808;2023-07-30T03:50:54;100809.94;;;21.11;70.17
62617;BME280;62539;51.190;6.808;2023-07-30T03:53:20;100806.44;;;21.11;70.19
62617;BME280;62539;51.190;6.808;2023-07-30T03:55:46;100810.81;;;21.12;70.22
62617;BME280;62539;51.190;6.808;2023-07-30T03:58:11;100796.75;;;21.11;70.29
62617;BME280;62539;51.190;6.808;2023-07-30T04:00:37;100802.03;;;21.11;70.21
62617;BME280;62539;51.190;6.808;2023-07-30T04:03:02;100807.28;;;21.11;70.36
62617;BME280;62539;51.190;6.808;2023-07-30T04:05:29;100806.38;;;21.12;70.13
62617;BME280;62539;51.190;6.808;2023-07-30T04:07:55;100801.03;;;21.14;70.32
62617;BME280;62539;51.190;6.808;2023-07-30T04:10:21;100794.06;;;21.13;70.10
62617;BME280;62539;51.190;6.808;2023-07-30T04:12:46;100794.91;;;21.13;70.08
62617;BME280;62539;51.190;6.808;2023-07-30T04:15:11;100793.97;;;21.14;70.11
62617;BME280;62539;51.190;6.808;2023-07-30T04:17:37;100793.03;;;21.15;70.06
62617;BME280;62539;51.190;6.808;2023-07-30T04:20:03;100792.13;;;21.17;70.36
62617;BME280;62539;51.190;6.808;2023-07-30T04:22:30;100800.03;;;21.17;70.36
62617;BME280;62539;51.190;6.808;2023-07-30T04:24:55;100806.19;;;21.17;70.24
62617;BME280;62539;51.190;6.808;2023-07-30T04:27:21;100812.28;;;21.18;70.05
62617;BME280;62539;51.190;6.808;2023-07-30T04:29:46;100814.00;;;21.19;69.87
62617;BME280;62539;51.190;6.808;2023-07-30T04:32:12;100823.63;;;21.20;69.86
62617;BME280;62539;51.190;6.808;2023-07-30T04:34:38;100823.63;;;21.20;70.19
62617;BME280;62539;51.190;6.808;2023-07-30T04:37:03;100819.28;;;21.19;69.97
62617;BME280;62539;51.190;6.808;2023-07-30T04:39:32;100816.59;;;21.20;70.01
62617;BME280;62539;51.190;6.808;2023-07-30T04:41:57;100822.72;;;21.21;70.12
62617;BME280;62539;51.190;6.808;2023-07-30T04:44:23;100827.16;;;21.20;69.99
62617;BME280;62539;51.190;6.808;2023-07-30T04:46:48;100829.78;;;21.20;69.78
62617;BME280;62539;51.190;6.808;2023-07-30T04:49:15;100827.16;;;21.20;69.72
62617;BME280;62539;51.190;6.808;2023-07-30T04:51:40;100832.41;;;21.20;69.83
62617;BME280;62539;51.190;6.808;2023-07-30T04:54:06;100831.56;;;21.20;69.75
62617;BME280;62539;51.190;6.808;2023-07-30T04:56:31;100827.97;;;21.21;69.84
62617;BME280;62539;51.190;6.808;2023-07-30T04:58:57;100835.91;;;21.21;69.78
62617;BME280;62539;51.190;6.808;2023-07-30T05:01:24;100828.91;;;21.20;69.72
62617;BME280;62539;51.190;6.808;2023-07-30T05:03:50;100831.56;;;21.20;69.55
62617;BME280;62539;51.190;6.808;2023-07-30T05:06:15;100834.09;;;21.21;69.51
62617;BME280;62539;51.190;6.808;2023-07-30T05:08:40;100831.56;;;21.20;69.40
62617;BME280;62539;51.190;6.808;2023-07-30T05:11:06;100826.28;;;21.20;69.52
62617;BME280;62539;51.190;6.808;2023-07-30T05:13:31;100825.44;;;21.19;69.73
62617;BME280;62539;51.190;6.808;2023-07-30T05:15:57;100834.28;;;21.18;69.36
62617;BME280;62539;51.190;6.808;2023-07-30T05:18:22;100823.72;;;21.18;69.32
62617;BME280;62539;51.190;6.808;2023-07-30T05:20:48;100824.56;;;21.19;69.52
62617;BME280;62539;51.190;6.808;2023-07-30T05:23:14;100832.47;;;21.19;69.05
62617;BME280;62539;51.190;6.808;2023-07-30T05:25:40;100830.72;;;21.19;69.36
62617;BME280;62539;51.190;6.808;2023-07-30T05:28:05;100836.81;;;21.20;69.18
62617;BME280;62539;51.190;6.808;2023-07-30T05:30:31;100835.13;;;21.19;68.95
62617;BME280;62539;51.190;6.808;2023-07-30T05:32:56;100836.81;;;21.20;69.07
62617;BME280;62539;51.190;6.808;2023-07-30T05:35:21;100830.72;;;21.19;69.02
62617;BME280;62539;51.190;6.808;2023-07-30T05:37:47;100832.41;;;21.20;69.26
62617;BME280;62539;51.190;6.808;2023-07-30T05:40:12;100832.41;;;21.20;69.12
62617;BME280;62539;51.190;6.808;2023-07-30T05:42:38;100828.81;;;21.21;69.02
62617;BME280;62539;51.190;6.808;2023-07-30T05:45:04;100841.97;;;21.23;69.09
62617;BME280;62539;51.190;6.808;2023-07-30T05:47:29;100836.69;;;21.23;69.07
62617;BME280;62539;51.190;6.808;2023-07-30T05:49:55;100840.25;;;21.22;68.93
62617;BME280;62539;51.190;6.808;2023-07-30T05:52:20;100838.41;;;21.24;68.69
62617;BME280;62539;51.190;6.808;2023-07-30T05:54:45;100835.75;;;21.24;69.08
62617;BME280;62539;51.190;6.808;2023-07-30T05:57:11;100835.69;;;21.25;68.88
62617;BME280;62539;51.190;6.808;2023-07-30T05:59:36;100836.56;;;21.26;68.55
62617;BME280;62539;51.190;6.808;2023-07-30T06:02:02;100829.44;;;21.28;68.37
62617;BME280;62539;51.190;6.808;2023-07-30T06:04:29;100836.41;;;21.29;68.62
62617;BME280;62539;51.190;6.808;2023-07-30T06:06:55;100853.09;;;21.29;68.45
62617;BME280;62539;51.190;6.808;2023-07-30T06:09:20;100839.88;;;21.29;68.57
62617;BME280;62539;51.190;6.808;2023-07-30T06:11:46;100845.97;;;21.32;68.15
62617;BME280;62539;51.190;6.808;2023-07-30T06:14:11;100851.22;;;21.32;68.23
62617;BME280;62539;51.190;6.808;2023-07-30T06:16:36;100840.69;;;21.32;68.28
62617;BME280;62539;51.190;6.808;2023-07-30T06:19:02;100851.19;;;21.33;68.24
62617;BME280;62539;51.190;6.808;2023-07-30T06:21:27;100853.69;;;21.36;67.97
62617;BME280;62539;51.190;6.808;2023-07-30T06:23:53;100853.69;;;21.36;68.06
62617;BME280;62539;51.190;6.808;2023-07-30T06:26:19;100851.81;;;21.38;67.83
62617;BME280;62539;51.190;6.808;2023-07-30T06:28:44;100853.53;;;21.39;68.13
62617;BME280;62539;51.190;6.808;2023-07-30T06:31:10;100857.91;;;21.40;67.78
62617;BME280;62539;51.190;6.808;2023-07-30T06:33:35;100858.69;;;21.42;67.74
62617;BME280;62539;51.190;6.808;2023-07-30T06:36:02;100855.13;;;21.43;68.13
62617;BME280;62539;51.190;6.808;2023-07-30T06:38:28;100858.53;;;21.46;67.65
62617;BME280;62539;51.190;6.808;2023-07-30T06:40:54;100860.25;;;21.47;67.61
62617;BME280;62539;51.190;6.808;2023-07-30T06:43:21;100847.84;;;21.49;67.87
62617;BME280;62539;51.190;6.808;2023-07-30T06:45:46;100861.81;;;21.51;67.56
62617;BME280;62539;51.190;6.808;2023-07-30T06:48:12;100859.09;;;21.52;67.49
62617;BME280;62539;51.190;6.808;2023-07-30T06:50:37;100858.19;;;21.53;67.26
62617;BME280;62539;51.190;6.808;2023-07-30T06:53:03;100858.13;;;21.55;67.56
62617;BME280;62539;51.190;6.808;2023-07-30T06:55:28;100856.28;;;21.57;67.55
62617;BME280;62539;51.190;6.808;2023-07-30T06:57:54;100861.41;;;21.60;67.39
62617;BME280;62539;51.190;6.808;2023-07-30T07:00:19;100863.13;;;21.61;67.35
62617;BME280;62539;51.190;6.808;2023-07-30T07:02:49;100860.38;;;21.64;67.15
62617;BME280;62539;51.190;6.808;2023-07-30T07:05:15;100865.56;;;21.66;66.83
62617;BME280;62539;51.190;6.808;2023-07-30T07:07:40;100869.84;;;21.68;67.09
62617;BME280;62539;51.190;6.808;2023-07-30T07:10:06;100861.78;;;21.71;67.06
62617;BME280;62539;51.190;6.808;2023-07-30T07:12:32;100862.59;;;21.73;67.03
62617;BME280;62539;51.190;6.808;2023-07-30T07:14:57;100878.28;;;21.77;66.46
62617;BME280;62539;51.190;6.808;2023-07-30T07:17:26;100872.84;;;21.80;66.26
62617;BME280;62539;51.190;6.808;2023-07-30T07:19:51;100872.72;;;21.83;66.57
62617;BME280;62539;51.190;6.808;2023-07-30T07:22:17;100880.50;;;21.86;66.33
62617;BME280;62539;51.190;6.808;2023-07-30T07:24:44;100878.56;;;21.90;66.22
62617;BME280;62539;51.190;6.808;2023-07-30T07:27:10;100887.19;;;21.93;66.04
62617;BME280;62539;51.190;6.808;2023-07-30T07:29:35;100878.25;;;21.96;65.76
62617;BME280;62539;51.190;6.808;2023-07-30T07:32:01;100885.97;;;22.00;65.76
62617;BME280;62539;51.190;6.808;2023-07-30T07:34:26;100889.31;;;22.04;65.67
62617;BME280;62539;51.190;6.808;2023-07-30T07:36:51;100886.53;;;22.07;65.82
62617;BME280;62539;51.190;6.808;2023-07-30T07:39:17;100891.66;;;22.10;65.46
62617;BME280;62539;51.190;6.808;2023-07-30T07:41:43;100888.88;;;22.13;65.37
62617;BME280;62539;51.190;6.808;2023-07-30T07:44:09;100889.59;;;22.17;65.54
62617;BME280;62539;51.190;6.808;2023-07-30T07:46:34;100892.94;;;22.21;65.30
62617;BME280;62539;51.190;6.808;2023-07-30T07:48:59;100888.38;;;22.24;65.08
62617;BME280;62539;51.190;6.808;2023-07-30T07:51:25;100885.59;;;22.27;65.35
62617;BME280;62539;51.190;6.808;2023-07-30T07:53:50;100889.78;;;22.31;65.18
62617;BME280;62539;51.190;6.808;2023-07-30T07:56:16;100894.94;;;22.35;65.16
62617;BME280;62539;51.190;6.808;2023-07-30T07:58:41;100899.19;;;22.37;65.00
62617;BME280;62539;51.190;6.808;2023-07-30T08:01:08;100901.63;;;22.42;64.73
62617;BME280;62539;51.190;6.808;2023-07-30T08:03:34;100903.28;;;22.44;64.63
62617;BME280;62539;51.190;6.808;2023-07-30T08:05:59;100901.41;;;22.46;64.67
62617;BME280;62539;51.190;6.808;2023-07-30T08:08:25;100903.06;;;22.49;64.45
62617;BME280;62539;51.190;6.808;2023-07-30T08:10:51;100909.06;;;22.53;64.34
62617;BME280;62539;51.190;6.808;2023-07-30T08:13:17;100907.19;;;22.55;64.28
62617;BME280;62539;51.190;6.808;2023-07-30T08:15:43;100902.63;;;22.58;63.75
62617;BME280;62539;51.190;6.808;2023-07-30T08:18:09;100904.34;;;22.59;64.05
62617;BME280;62539;51.190;6.808;2023-07-30T08:20:34;100899.81;;;22.61;63.79
62617;BME280;62539;51.190;6.808;2023-07-30T08:22:59;100902.31;;;22.65;63.68
62617;BME280;62539;51.190;6.808;2023-07-30T08:25:25;100889.00;;;22.66;63.70
62617;BME280;62539;51.190;6.808;2023-07-30T08:27:50;100908.28;;;22.68;63.75
62617;BME280;62539;51.190;6.808;2023-07-30T08:30:16;100902.00;;;22.71;63.14
62617;BME280;62539;51.190;6.808;2023-07-30T08:32:41;100898.34;;;22.73;63.11
62617;BME280;62539;51.190;6.808;2023-07-30T08:35:08;100893.75;;;22.77;63.29
62617;BME280;62539;51.190;6.808;2023-07-30T08:37:34;100906.84;;;22.80;62.87
62617;BME280;62539;51.190;6.808;2023-07-30T08:40:00;100903.09;;;22.84;63.05
62617;BME280;62539;51.190;6.808;2023-07-30T08:42:25;100909.94;;;22.88;62.88
62617;BME280;62539;51.190;6.808;2023-07-30T08:44:51;100902.63;;;22.94;62.72
62617;BME280;62539;51.190;6.808;2023-07-30T08:47:16;100903.31;;;22.97;62.73
62617;BME280;62539;51.190;6.808;2023-07-30T08:49:42;100908.38;;;23.02;62.46
62617;BME280;62539;51.190;6.808;2023-07-30T08:52:08;100903.72;;;23.07;62.20
62617;BME280;62539;51.190;6.808;2023-07-30T08:54:37;100907.81;;;23.13;62.24
62617;BME280;62539;51.190;6.808;2023-07-30T08:57:04;100920.81;;;23.17;61.83
62617;BME280;62539;51.190;6.808;2023-07-30T08:59:39;100918.84;;;23.21;61.81
62617;BME280;62539;51.190;6.808;2023-07-30T09:02:18;100927.53;;;23.25;61.32
62617;BME280;62539;51.190;6.808;2023-07-30T09:04:53;100925.50;;;23.30;61.23
62617;BME280;62539;51.190;6.808;2023-07-30T09:07:26;100932.41;;;23.32;60.55
62617;BME280;62539;51.190;6.808;2023-07-30T09:09:51;100934.91;;;23.36;60.30
62617;BME280;62539;51.190;6.808;2023-07-30T09:12:17;100923.31;;;23.38;60.10
62617;BME280;62539;51.190;6.808;2023-07-30T09:14:43;100925.03;;;23.39;59.98
62617;BME280;62539;51.190;6.808;2023-07-30T09:17:18;100935.47;;;23.42;59.91
62617;BME280;62539;51.190;6.808;2023-07-30T09:19:44;100940.59;;;23.45;59.77
62617;BME280;62539;51.190;6.808;2023-07-30T09:22:12;100934.25;;;23.48;59.65
62617;BME280;62539;51.190;6.808;2023-07-30T09:24:43;100942.03;;;23.51;58.82
62617;BME280;62539;51.190;6.808;2023-07-30T09:27:08;100943.69;;;23.54;59.03
62617;BME280;62539;51.190;6.808;2023-07-30T09:29:33;100947.88;;;23.58;58.43
62617;BME280;62539;51.190;6.808;2023-07-30T09:31:59;100944.19;;;23.60;58.15
62617;BME280;62539;51.190;6.808;2023-07-30T09:34:25;100944.91;;;23.64;58.24
62617;BME280;62539;51.190;6.808;2023-07-30T09:36:51;100943.81;;;23.68;58.31
62617;BME280;62539;51.190;6.808;2023-07-30T09:39:25;100953.28;;;23.72;58.02
62617;BME280;62539;51.190;6.808;2023-07-30T09:41:53;100954.69;;;23.80;58.06
62617;BME280;62539;51.190;6.808;2023-07-30T09:44:25;100953.47;;;23.85;58.00
62617;BME280;62539;51.190;6.808;2023-07-30T09:46:50;100945.09;;;23.93;57.81
62617;BME280;62539;51.190;6.808;2023-07-30T09:49:17;100958.81;;;24.01;57.44
62617;BME280;62539;51.190;6.808;2023-07-30T09:51:43;100951.28;;;24.10;57.17
62617;BME280;62539;51.190;6.808;2023-07-30T09:54:11;100949.94;;;24.18;56.99
62617;BME280;62539;51.190;6.808;2023-07-30T09:56:41;100948.56;;;24.27;56.85
62617;BME280;62539;51.190;6.808;2023-07-30T09:59:08;100942.72;;;24.36;56.20
62617;BME280;62539;51.190;6.808;2023-07-30T10:01:46;100949.41;;;24.44;55.86
62617;BME280;62539;51.190;6.808;2023-07-30T10:04:19;100949.63;;;24.55;55.70
62617;BME280;62539;51.190;6.808;2023-07-30T10:06:52;100948.34;;;24.62;54.72
62617;BME280;62539;51.190;6.808;2023-07-30T10:09:23;100936.44;;;24.70;54.71
62617;BME280;62539;51.190;6.808;2023-07-30T10:11:52;100936.88;;;24.78;54.21
62617;BME280;62539;51.190;6.808;2023-07-30T10:14:21;100938.50;;;24.80;53.85
62617;BME280;62539;51.190;6.808;2023-07-30T10:16:54;100939.94;;;24.86;53.12
62617;BME280;62539;51.190;6.808;2023-07-30T10:19:27;100937.88;;;24.91;53.01
62617;BME280;62539;51.190;6.808;2023-07-30T10:24:38;100931.81;;;25.04;52.93
62617;BME280;62539;51.190;6.808;2023-07-30T10:27:08;100930.81;;;25.06;52.08
62617;BME280;62539;51.190;6.808;2023-07-30T10:29:39;100928.03;;;25.08;51.87
62617;BME280;62539;51.190;6.808;2023-07-30T10:32:07;100936.88;;;25.08;51.86
62617;BME280;62539;51.190;6.808;2023-07-30T10:34:46;100931.66;;;25.07;51.62
62617;BME280;62539;51.190;6.808;2023-07-30T10:37:20;100946.38;;;25.13;51.44
62617;BME280;62539;51.190;6.808;2023-07-30T10:39:49;100936.41;;;25.16;51.70
62617;BME280;62539;51.190;6.808;2023-07-30T10:42:15;100937.84;;;25.22;51.68
62617;BME280;62539;51.190;6.808;2023-07-30T10:44:45;100942.88;;;25.27;51.57
62617;BME280;62539;51.190;6.808;2023-07-30T10:47:11;100937.38;;;25.30;51.47
62617;BME280;62539;51.190;6.808;2023-07-30T10:49:37;100941.47;;;25.35;51.32
62617;BME280;62539;51.190;6.808;2023-07-30T10:52:04;100940.97;;;25.43;50.84
62617;BME280;62539;51.190;6.808;2023-07-30T10:54:33;100937.78;;;25.52;50.43
62617;BME280;62539;51.190;6.808;2023-07-30T10:56:59;100937.59;;;25.56;50.96
62617;BME280;62539;51.190;6.808;2023-07-30T10:59:25;100938.94;;;25.63;50.00
62617;BME280;62539;51.190;6.808;2023-07-30T11:01:52;100932.59;;;25.65;50.07
62617;BME280;62539;51.190;6.808;2023-07-30T11:04:19;100941.41;;;25.66;49.48
62617;BME280;62539;51.190;6.808;2023-07-30T11:06:47;100936.94;;;25.66;49.28
62617;BME280;62539;51.190;6.808;2023-07-30T11:09:22;100939.69;;;25.65;48.97
62617;BME280;62539;51.190;6.808;2023-07-30T11:11:50;100941.50;;;25.64;49.28
62617;BME280;62539;51.190;6.808;2023-07-30T11:14:21;100946.81;;;25.64;49.41
62617;BME280;62539;51.190;6.808;2023-07-30T11:16:56;100943.22;;;25.65;48.85
62617;BME280;62539;51.190;6.808;2023-07-30T11:19:24;100937.97;;;25.78;49.14
62617;BME280;62539;51.190;6.808;2023-07-30T11:21:51;100940.03;;;25.88;49.33
62617;BME280;62539;51.190;6.808;2023-07-30T11:24:19;100943.44;;;26.04;49.46
62617;BME280;62539;51.190;6.808;2023-07-30T11:26:45;100936.31;;;26.19;49.08
62617;BME280;62539;51.190;6.808;2023-07-30T11:29:17;100952.13;;;26.35;47.78
62617;BME280;62539;51.190;6.808;2023-07-30T11:31:44;100953.97;;;26.48;47.96
62617;BME280;62539;51.190;6.808;2023-07-30T11:34:12;100953.38;;;26.57;47.48
62617;BME280;62539;51.190;6.808;2023-07-30T11:36:40;100958.09;;;26.66;47.25
62617;BME280;62539;51.190;6.808;2023-07-30T11:39:07;100966.50;;;26.73;46.87
62617;BME280;62539;51.190;6.808;2023-07-30T11:41:33;100959.06;;;26.78;46.83
62617;BME280;62539;51.190;6.808;2023-07-30T11:44:00;100953.66;;;26.80;46.63
62617;BME280;62539;51.190;6.808;2023-07-30T11:46:25;100961.63;;;26.80;46.53
62617;BME280;62539;51.190;6.808;2023-07-30T11:48:52;100966.97;;;26.80;46.56
62617;BME280;62539;51.190;6.808;2023-07-30T11:51:35;100969.34;;;26.84;46.84
62617;BME280;62539;51.190;6.808;2023-07-30T11:54:00;100961.25;;;26.86;47.07
62617;BME280;62539;51.190;6.808;2023-07-30T11:56:29;100973.09;;;26.95;47.00
62617;BME280;62539;51.190;6.808;2023-07-30T11:59:05;100970.88;;;27.02;46.90
62617;BME280;62539;51.190;6.808;2023-07-30T12:01:34;100973.41;;;27.03;46.90
62617;BME280;62539;51.190;6.808;2023-07-30T12:04:02;100985.88;;;27.03;46.99
62617;BME280;62539;51.190;6.808;2023-07-30T12:06:46;100971.28;;;26.95;46.64
62617;BME280;62539;51.190;6.808;2023-07-30T12:09:15;100981.94;;;26.95;47.00
62617;BME280;62539;51.190;6.808;2023-07-30T12:11:55;100996.81;;;26.85;47.01
62617;BME280;62539;51.190;6.808;2023-07-30T12:14:25;101011.09;;;26.84;47.14
62617;BME280;62539;51.190;6.808;2023-07-30T12:17:08;101012.28;;;26.78;47.49
62617;BME280;62539;51.190;6.808;2023-07-30T12:19:34;101011.66;;;26.75;47.83
62617;BME280;62539;51.190;6.808;2023-07-30T12:22:01;101019.72;;;26.73;47.72
62617;BME280;62539;51.190;6.808;2023-07-30T12:24:27;101010.16;;;26.70;47.89
62617;BME280;62539;51.190;6.808;2023-07-30T12:26:53;101014.06;;;26.65;47.74
62617;BME280;62539;51.190;6.808;2023-07-30T12:29:18;101016.06;;;26.61;48.19
62617;BME280;62539;51.190;6.808;2023-07-30T12:31:44;101017.03;;;26.60;48.31
62617;BME280;62539;51.190;6.808;2023-07-30T12:34:11;101025.00;;;26.60;48.13
62617;BME280;62539;51.190;6.808;2023-07-30T12:36:36;101025.84;;;26.61;48.21
62617;BME280;62539;51.190;6.808;2023-07-30T12:39:02;101034.03;;;26.58;48.49
62617;BME280;62539;51.190;6.808;2023-07-30T12:41:28;101028.91;;;26.54;47.96
62617;BME280;62539;51.190;6.808;2023-07-30T12:43:55;101023.91;;;26.50;48.03
62617;BME280;62539;51.190;6.808;2023-07-30T12:46:22;101027.72;;;26.46;48.07
62617;BME280;62539;51.190;6.808;2023-07-30T12:48:48;101024.09;;;26.47;48.13
62617;BME280;62539;51.190;6.808;2023-07-30T12:51:14;101022.19;;;26.49;48.26